« エアフェスタ浜松2019【B.I.編】 浜松飛行場 2019/10/20 sun | トップページ | エアフェスタ浜松2019その1 浜松飛行場 2019/10/20 sun »

2019/10/28

定点 富山空港 2019/10/28 mon

今日は、日の出前から晴れぇ

RJNT 272300Z VRB01KT 9999 FEW020 14/10 Q1019

20191028_rjnt_00ja85an

空が青い

20191028_rjnt_01ja85an

MEDICでホールディングして高度処理

20191028_rjnt_02ja85an

20191028_rjnt_03ja85an

ANA313 RJTT-RJNT JA85AN B737-881

RJNT 280000Z 21004KT 190V250 9999 FEW030 15/10 Q1019

20191028_rjnt_04ja10ym

朝一の搬送先、富大病院から直接次の現場へ

20191028_rjnt_05ja6512

JA6512 AS350B3 AKF ↓

20191028_rjnt_06ja85an

20191028_rjnt_07ja85an

ANA316 RJNT-RJTT JA85AN B737-881

20191028_rjnt_08ja85an

煙突撮ったつもりでは・・ ないのだが

RJNT 280100Z VRB01KT 9999 FEW025 18/12 Q1019

20191028_rjnt_09ja6512

JA6512↑

20191028_rjnt_10b9951

20191028_rjnt_11b9951

CSN613 ZYTL-RJNT B-9951 A320-232

20191028_rjnt_12ja10ym

婦中町二件目

20191028_rjnt_13ja01ad

トンビさんを避けながら・・

20191028_rjnt_14ja01ad

20191028_rjnt_15ja01ad

JA01AD C208B HRT

20191028_rjnt_16ja57an

20191028_rjnt_17ja57an

ANA315 RJTT-RJNT JA57AN B737-881

RJNT 280200Z 34004KT 250V040 9999 FEW025 18/10 Q1018

20191028_rjnt_18ja02kg

昨日08KGさんが北へ向かったので、入れ替わりですかね。

20191028_rjnt_19ja02kg

JA02KG A109E KGK

20191028_rjnt_20b9951

20191028_rjnt_21b9951

20191028_rjnt_22b9951

CSN614 RJNT-ZYTL B-9951 A320-232

20191028_rjnt_23ja6512

JA6512↓

20191028_rjnt_24aki

空港周辺も紅葉が見頃に

20191028_rjnt_25ja6516

JA6516 AS350B3 AKF ↓

20191028_rjnt_26b18617

20191028_rjnt_27b18617

CAL170 RCTP-RJNT B-18617 B737-809

20191028_rjnt_28b18617

20191028_rjnt_29ja02kg

お土産をいっぱい持ってお帰りです。

20191028_rjnt_30b18617

山は綺麗ですよ。

20191028_rjnt_31ja02kg

JA02KG↑ また寄ってかれぇ 次は岡南の模様

20191028_rjnt_32ja57an

RJNT 280300Z 35007KT 9999 FEW030 18/08 Q1017

20191028_rjnt_33ja57an

20191028_rjnt_34ja57an

ANA1181 RJNT-RJCC JA57AN B737-881

20191028_rjnt_35ja6512

JA6512↑

20191028_rjnt_36ja6502

JA6502 AS350B3 AKF ↓

RJNT 280400Z 36008KT 9999 FEW030 19/09 Q1017

20191028_rjnt_37b18617

20191028_rjnt_38b18617

CAL171 RJNT-RCTP B-18617 B737-809

20191028_rjnt_39ja119w

お天気が良いので、Wさんが出てきた

20191028_rjnt_40ja6507

JA6502 スターターがかわいい

20191028_rjnt_41ja119w

エンジンスタート

20191028_rjnt_42ja6507

JA6502↑

20191028_rjnt_43ja119w

ホイスト良し

20191028_rjnt_44ja119w

JA119W AW139 富山県消防防災

20191028_rjnt_45ja119w

南東へ向かっていかれました。

 

|

« エアフェスタ浜松2019【B.I.編】 浜松飛行場 2019/10/20 sun | トップページ | エアフェスタ浜松2019その1 浜松飛行場 2019/10/20 sun »

富山空港」カテゴリの記事

コメント

コメントを書く



(ウェブ上には掲載しません)


コメントは記事投稿者が公開するまで表示されません。



« エアフェスタ浜松2019【B.I.編】 浜松飛行場 2019/10/20 sun | トップページ | エアフェスタ浜松2019その1 浜松飛行場 2019/10/20 sun »